Terminal Aerodrome Forecast
Issued by NWS

Home | Current Version | Previous Version | Text Only | Print | Product List | Glossary Off
Versions: 1 2 3 4 5 6 7 8 9 10 11 12

000
FTUS41 KCLE 281121
TAFFDY
TAF
KFDY 281121Z 2812/2912 VRB03KT P6SM SCT250
     FM281700 05004KT P6SM BKN250
     FM290000 VRB02KT P6SM SKC=

USA.gov is the U.S. government's official web portal to all federal, state and local government web resources and services.